| time (UTC) | temp C | wind direction | speed KPH | gust KPH | rain 1hr cm | rain 24hr cm | rain mn cm | humidity % | barometer mb |
| 20260507223958 | 11 | 301 | 1.6 | 8.0 | 0.00 | 0.25 | 0.00 | 96 | 1014.1 |
| 20260507223444 | 12 | 297 | 0.0 | 8.0 | 0.00 | 0.25 | 0.00 | 96 | 1014.1 |
| 20260507223009 | 11 | 300 | 0.0 | 6.4 | 0.00 | 0.25 | 0.00 | 96 | 1013.8 |
| 20260507222928 | 12 | 300 | 1.6 | 6.4 | 0.00 | 0.25 | 0.00 | 96 | 1014.0 |
| 20260507222416 | 12 | 300 | 1.6 | 6.4 | 0.00 | 0.25 | 0.00 | 96 | 1014.0 |
| 20260507221901 | 12 | 317 | 0.0 | 6.4 | 0.00 | 0.25 | 0.00 | 96 | 1013.9 |
| 20260507221635 | 12 | 304 | 0.0 | 4.8 | 0.00 | 0.25 | 0.00 | 96 | 1013.7 |
| 20260507221350 | 12 | 307 | 0.0 | 4.8 | 0.03 | 0.25 | 0.00 | 96 | 1014.0 |
| 20260507220850 | 12 | 302 | 0.0 | 3.2 | 0.03 | 0.25 | 0.00 | 96 | 1014.0 |
| 20260507220337 | 12 | 316 | 0.0 | 4.8 | 0.03 | 0.25 | 0.00 | 96 | 1014.0 |
| 20260507220107 | 12 | 316 | 0.0 | 6.4 | 0.03 | 0.25 | 0.00 | 96 | 1013.7 |
| 20260507215819 | 12 | 317 | 0.0 | 6.4 | 0.03 | 0.25 | 0.25 | 96 | 1014.0 |
| 20260507214818 | 12 | 315 | 1.6 | 8.0 | 0.03 | 0.25 | 0.25 | 96 | 1013.7 |
| 20260507214537 | 12 | 300 | 0.0 | 6.4 | 0.03 | 0.25 | 0.25 | 96 | 1013.5 |
| 20260507214248 | 12 | 323 | 1.6 | 6.4 | 0.03 | 0.25 | 0.25 | 96 | 1013.6 |
| 20260507213002 | 12 | 304 | 4.8 | 12.9 | 0.03 | 0.25 | 0.25 | 96 | 1013.2 |
| 20260507212720 | 12 | 340 | 3.2 | 14.5 | 0.03 | 0.25 | 0.25 | 96 | 1013.4 |
| 20260507212208 | 12 | 309 | 3.2 | 14.5 | 0.03 | 0.25 | 0.25 | 96 | 1013.4 |
| 20260507211654 | 12 | 327 | 3.2 | 14.5 | 0.03 | 0.25 | 0.25 | 96 | 1013.4 |
| 20260507211536 | 12 | 329 | 3.2 | 14.5 | 0.03 | 0.25 | 0.25 | 95 | 1013.1 |
| 20260507211158 | 12 | 309 | 4.8 | 12.9 | 0.00 | 0.23 | 0.23 | 95 | 1013.3 |
| 20260507210639 | 12 | 327 | 4.8 | 16.1 | 0.00 | 0.23 | 0.23 | 95 | 1013.1 |
| 20260507210125 | 12 | 340 | 3.2 | 16.1 | 0.00 | 0.23 | 0.23 | 96 | 1013.0 |
| 20260507205059 | 12 | 308 | 1.6 | 6.4 | 0.00 | 0.23 | 0.23 | 95 | 1013.1 |
| 20260507204544 | 12 | 306 | 0.0 | 4.8 | 0.00 | 0.23 | 0.23 | 95 | 1013.0 |
| 20260507204519 | 12 | 306 | 0.0 | 4.8 | 0.00 | 0.23 | 0.23 | 95 | 1012.8 |
| 20260507204030 | 12 | 240 | 1.6 | 4.8 | 0.00 | 0.23 | 0.23 | 95 | 1013.0 |
| 20260507203039 | 12 | 242 | 1.6 | 4.8 | 0.00 | 0.23 | 0.23 | 95 | 1012.8 |
| 20260507203001 | 12 | 301 | 0.0 | 4.8 | 0.00 | 0.23 | 0.23 | 95 | 1013.1 |
| 20260507202445 | 12 | 342 | 0.0 | 4.8 | 0.00 | 0.23 | 0.23 | 95 | 1013.0 |
| 20260507201931 | 12 | 343 | 0.0 | 8.0 | 0.00 | 0.23 | 0.23 | 95 | 1012.9 |
| 20260507201600 | 12 | 305 | 0.0 | 8.0 | 0.00 | 0.23 | 0.23 | 95 | 1012.7 |
| 20260507201415 | 13 | 305 | 0.0 | 8.0 | 0.00 | 0.23 | 0.23 | 94 | 1012.9 |
| 20260507200901 | 13 | 302 | 0.0 | 4.8 | 0.00 | 0.23 | 0.23 | 95 | 1013.1 |
| 20260507200346 | 13 | 254 | 1.6 | 6.4 | 0.00 | 0.23 | 0.23 | 94 | 1013.1 |
| 20260507200016 | 12 | 254 | 0.0 | 11.3 | 0.00 | 0.23 | 0.23 | 94 | 1013.0 |
| 20260507195832 | 13 | 247 | 4.8 | 17.7 | 0.00 | 0.23 | 0.23 | 94 | 1013.2 |
| 20260507195320 | 13 | 251 | 6.4 | 17.7 | 0.00 | 0.23 | 0.23 | 94 | 1013.1 |
| 20260507194807 | 13 | 245 | 1.6 | 12.9 | 0.03 | 0.23 | 0.23 | 94 | 1013.0 |
| 20260507194535 | 13 | 250 | 1.6 | 8.0 | 0.03 | 0.23 | 0.23 | 93 | 1012.7 |
| 20260507194251 | 13 | 249 | 0.0 | 4.8 | 0.05 | 0.23 | 0.23 | 94 | 1012.9 |
| 20260507193738 | 13 | 346 | 0.0 | 3.2 | 0.08 | 0.23 | 0.23 | 93 | 1012.8 |
| 20260507193228 | 13 | 355 | 0.0 | 3.2 | 0.13 | 0.23 | 0.23 | 93 | 1012.6 |
| 20260507193001 | 13 | 355 | 0.0 | 4.8 | 0.18 | 0.23 | 0.23 | 93 | 1012.3 |
| 20260507192720 | 13 | 355 | 1.6 | 6.4 | 0.23 | 0.23 | 0.23 | 93 | 1012.5 |
| 20260507192213 | 13 | 355 | 0.0 | 6.4 | 0.23 | 0.23 | 0.23 | 92 | 1012.5 |
| 20260507191702 | 13 | 304 | 0.0 | 8.0 | 0.23 | 0.23 | 0.23 | 92 | 1012.4 |
| 20260507191638 | 13 | 308 | 0.0 | 3.2 | 0.23 | 0.23 | 0.23 | 92 | 1012.2 |
| 20260507191153 | 13 | 304 | 1.6 | 8.0 | 0.23 | 0.23 | 0.23 | 92 | 1012.2 |
| 20260507190650 | 13 | 316 | 1.6 | 8.0 | 0.23 | 0.23 | 0.23 | 91 | 1012.1 |
| 20260507190150 | 13 | 329 | 1.6 | 6.4 | 0.23 | 0.23 | 0.23 | 91 | 1012.2 |
| 20260507190025 | 13 | 337 | 1.6 | 6.4 | 0.23 | 0.23 | 0.23 | 90 | 1012.0 |
| 20260507185644 | 14 | 309 | 0.0 | 4.8 | 0.23 | 0.23 | 0.23 | 90 | 1012.2 |
| 20260507185137 | 14 | 307 | 1.6 | 6.4 | 0.23 | 0.23 | 0.23 | 89 | 1012.1 |
| 20260507184631 | 14 | 11 | 1.6 | 17.7 | 0.20 | 0.20 | 0.23 | 87 | 1012.4 |
| 20260507184505 | 14 | 11 | 0.0 | 17.7 | 0.20 | 0.20 | 0.20 | 87 | 1012.1 |
| 20260507184119 | 15 | 298 | 1.6 | 17.7 | 0.18 | 0.18 | 0.18 | 85 | 1012.4 |
| 20260507183613 | 15 | 324 | 1.6 | 8.0 | 0.15 | 0.15 | 0.15 | 83 | 1012.3 |
| 20260507183107 | 15 | 307 | 1.6 | 8.0 | 0.05 | 0.05 | 0.08 | 81 | 1012.2 |
| 20260507183044 | 15 | 307 | 0.0 | 8.0 | 0.08 | 0.08 | 0.08 | 81 | 1011.9 |
| 20260507182554 | 16 | 307 | 1.6 | 6.4 | 0.00 | 0.00 | 0.00 | 79 | 1012.0 |
| 20260507182048 | 16 | 261 | 1.6 | 12.9 | 0.00 | 0.00 | 0.00 | 78 | 1012.0 |
| 20260507181619 | 16 | 302 | 1.6 | 12.9 | 0.00 | 0.00 | 0.00 | 79 | 1011.5 |
| 20260507181548 | 16 | 285 | 1.6 | 12.9 | 0.00 | 0.00 | 0.00 | 78 | 1011.8 |
| 20260507181048 | 16 | 313 | 4.8 | 16.1 | 0.00 | 0.00 | 0.00 | 78 | 1011.5 |
| 20260507180549 | 16 | 333 | 4.8 | 16.1 | 0.00 | 0.00 | 0.00 | 77 | 1011.3 |
| 20260507180119 | 16 | 13 | 4.8 | 16.1 | 0.00 | 0.00 | 0.00 | 74 | 1010.8 |
| 20260507180053 | 16 | 304 | 4.8 | 16.1 | 0.00 | 0.00 | 0.00 | 74 | 1011.1 |
| 20260507175537 | 16 | 5 | 4.8 | 16.1 | 0.00 | 0.00 | 0.00 | 73 | 1011.1 |
| 20260507175031 | 16 | 289 | 1.6 | 11.3 | 0.00 | 0.00 | 0.00 | 71 | 1011.0 |
| 20260507174556 | 16 | 330 | 0.0 | 17.7 | 0.00 | 0.00 | 0.00 | 71 | 1010.7 |
| 20260507174515 | 16 | 330 | 3.2 | 17.7 | 0.00 | 0.00 | 0.00 | 70 | 1010.9 |
| 20260507174004 | 16 | 301 | 4.8 | 17.7 | 0.00 | 0.00 | 0.00 | 69 | 1010.7 |
| 20260507173459 | 16 | 318 | 3.2 | 16.1 | 0.00 | 0.00 | 0.00 | 68 | 1010.6 |
| 20260507173135 | 16 | 304 | 3.2 | 12.9 | 0.00 | 0.00 | 0.00 | 68 | 1010.3 |
| 20260507172951 | 17 | 288 | 1.6 | 8.0 | 0.00 | 0.00 | 0.00 | 68 | 1010.5 |
| 20260507172448 | 17 | 316 | 1.6 | 11.3 | 0.00 | 0.00 | 0.00 | 67 | 1010.5 |
| 20260507171937 | 17 | 312 | 1.6 | 11.3 | 0.00 | 0.00 | 0.00 | 67 | 1010.4 |
| 20260507171513 | 17 | 331 | 0.0 | 8.0 | 0.00 | 0.00 | 0.00 | 67 | 1010.0 |
| 20260507170932 | 17 | 309 | 1.6 | 16.1 | 0.00 | 0.00 | 0.00 | 67 | 1010.3 |
| 20260507170410 | 17 | 291 | 1.6 | 16.1 | 0.00 | 0.00 | 0.00 | 65 | 1010.2 |
| 20260507170047 | 17 | 288 | 3.2 | 12.9 | 0.00 | 0.00 | 0.00 | 63 | 1009.8 |
| 20260507165902 | 18 | 310 | 1.6 | 12.9 | 0.00 | 0.00 | 0.00 | 62 | 1010.1 |
| 20260507165351 | 18 | 275 | 1.6 | 12.9 | 0.00 | 0.00 | 0.00 | 60 | 1010.0 |
| 20260507164837 | 18 | 246 | 1.6 | 9.7 | 0.00 | 0.00 | 0.00 | 59 | 1010.0 |
| 20260507164502 | 18 | 259 | 1.6 | 16.1 | 0.00 | 0.00 | 0.00 | 59 | 1009.6 |
| 20260507164325 | 18 | 257 | 4.8 | 20.9 | 0.00 | 0.00 | 0.00 | 60 | 1009.9 |
| 20260507163811 | 18 | 251 | 6.4 | 20.9 | 0.00 | 0.00 | 0.00 | 59 | 1009.9 |
| 20260507163259 | 19 | 243 | 8.0 | 16.1 | 0.00 | 0.00 | 0.00 | 63 | 1009.7 |
| 20260507163027 | 18 | 239 | 6.4 | 16.1 | 0.00 | 0.00 | 0.00 | 63 | 1009.2 |
| 20260507162748 | 19 | 232 | 8.0 | 16.1 | 0.00 | 0.00 | 0.00 | 62 | 1009.6 |
| 20260507162235 | 19 | 222 | 6.4 | 12.9 | 0.00 | 0.00 | 0.00 | 62 | 1009.5 |
| 20260507161720 | 19 | 222 | 4.8 | 12.9 | 0.00 | 0.00 | 0.00 | 62 | 1009.5 |
| 20260507161556 | 18 | 194 | 3.2 | 12.9 | 0.00 | 0.00 | 0.00 | 62 | 1009.2 |
| 20260507161211 | 19 | 255 | 4.8 | 12.9 | 0.00 | 0.00 | 0.00 | 61 | 1009.5 |
| 20260507160651 | 19 | 223 | 6.4 | 14.5 | 0.00 | 0.00 | 0.00 | 61 | 1009.4 |
| 20260507160130 | 19 | 275 | 8.0 | 17.7 | 0.00 | 0.00 | 0.00 | 61 | 1009.5 |
| 20260507160007 | 19 | 174 | 4.8 | 17.7 | 0.00 | 0.00 | 0.00 | 61 | 1009.1 |
| 20260507155107 | 19 | 212 | 8.0 | 17.7 | 0.00 | 0.00 | 0.00 | 61 | 1009.6 |
| 20260507154558 | 19 | 198 | 8.0 | 16.1 | 0.00 | 0.00 | 0.00 | 61 | 1009.5 |
| 20260507154532 | 19 | 198 | 4.8 | 16.1 | 0.00 | 0.00 | 0.00 | 60 | 1009.1 |
| 20260507154044 | 20 | 195 | 8.0 | 16.1 | 0.00 | 0.00 | 0.00 | 61 | 1009.5 |
| 20260507153533 | 20 | 175 | 8.0 | 22.5 | 0.00 | 0.00 | 0.00 | 60 | 1009.6 |
| 20260507153200 | 19 | 265 | 6.4 | 22.5 | 0.00 | 0.00 | 0.00 | 60 | 1009.2 |
| 20260507152007 | 20 | 180 | 8.0 | 19.3 | 0.00 | 0.00 | 0.00 | 61 | 1009.6 |
| 20260507151532 | 20 | 208 | 8.0 | 19.3 | 0.00 | 0.00 | 0.00 | 61 | 1009.1 |
| 20260507151454 | 20 | 283 | 6.4 | 19.3 | 0.00 | 0.00 | 0.00 | 61 | 1009.5 |
| 20260507150945 | 20 | 232 | 6.4 | 19.3 | 0.00 | 0.00 | 0.00 | 61 | 1009.4 |
| 20260507150430 | 20 | 202 | 6.4 | 11.3 | 0.00 | 0.00 | 0.00 | 61 | 1009.4 |
| 20260507150056 | 20 | 259 | 4.8 | 16.1 | 0.00 | 0.00 | 0.00 | 62 | 1009.0 |
| 20260507145916 | 20 | 165 | 6.4 | 16.1 | 0.00 | 0.00 | 0.00 | 61 | 1009.4 |
| 20260507145402 | 20 | 243 | 8.0 | 17.7 | 0.00 | 0.00 | 0.00 | 60 | 1009.4 |
| 20260507144851 | 20 | 223 | 8.0 | 17.7 | 0.00 | 0.00 | 0.00 | 60 | 1009.3 |
| 20260507144520 | 20 | 246 | 6.4 | 14.5 | 0.00 | 0.00 | 0.00 | 60 | 1009.0 |
| 20260507144341 | 20 | 217 | 8.0 | 16.1 | 0.00 | 0.00 | 0.00 | 60 | 1009.4 |
| 20260507143824 | 20 | 211 | 6.4 | 16.1 | 0.00 | 0.00 | 0.00 | 59 | 1009.4 |
| 20260507143314 | 20 | 203 | 8.0 | 17.7 | 0.00 | 0.00 | 0.00 | 60 | 1009.3 |
| 20260507143046 | 20 | 246 | 4.8 | 17.7 | 0.00 | 0.00 | 0.00 | 60 | 1009.0 |
| 20260507142803 | 20 | 198 | 8.0 | 17.7 | 0.00 | 0.00 | 0.00 | 60 | 1009.4 |
| 20260507142249 | 20 | 177 | 8.0 | 17.7 | 0.00 | 0.00 | 0.00 | 60 | 1009.4 |
| 20260507141610 | 20 | 219 | 11.3 | 19.3 | 0.00 | 0.00 | 0.00 | 59 | 1008.9 |
| 20260507140706 | 20 | 261 | 8.0 | 17.7 | 0.00 | 0.00 | 0.00 | 58 | 1009.4 |
| 20260507140150 | 20 | 223 | 9.7 | 17.7 | 0.00 | 0.00 | 0.00 | 57 | 1009.3 |
| 20260507140127 | 20 | 205 | 8.0 | 16.1 | 0.00 | 0.00 | 0.00 | 57 | 1008.9 |
| 20260507135130 | 21 | 196 | 9.7 | 19.3 | 0.00 | 0.00 | 0.00 | 56 | 1009.3 |
| 20260507134615 | 21 | 257 | 9.7 | 19.3 | 0.00 | 0.00 | 0.00 | 58 | 1009.3 |
| 20260507134553 | 20 | 257 | 8.0 | 19.3 | 0.00 | 0.00 | 0.00 | 59 | 1008.9 |
| 20260507134101 | 20 | 222 | 8.0 | 19.3 | 0.00 | 0.00 | 0.00 | 58 | 1009.3 |
| 20260507133544 | 20 | 152 | 6.4 | 19.3 | 0.00 | 0.00 | 0.00 | 59 | 1009.3 |
| 20260507133030 | 20 | 148 | 8.0 | 16.1 | 0.00 | 0.00 | 0.00 | 59 | 1009.4 |
| 20260507133004 | 20 | 190 | 3.2 | 14.5 | 0.00 | 0.00 | 0.00 | 59 | 1009.0 |
| 20260507132515 | 20 | 245 | 4.8 | 16.1 | 0.00 | 0.00 | 0.00 | 58 | 1009.5 |
| 20260507131954 | 20 | 241 | 3.2 | 16.1 | 0.00 | 0.00 | 0.00 | 58 | 1009.5 |
| 20260507131622 | 20 | 235 | 0.0 | 8.0 | 0.00 | 0.00 | 0.00 | 59 | 1009.0 |
| 20260507131443 | 20 | 235 | 4.8 | 11.3 | 0.00 | 0.00 | 0.00 | 59 | 1009.5 |
| 20260507130930 | 20 | 273 | 6.4 | 16.1 | 0.00 | 0.00 | 0.00 | 59 | 1009.6 |
| 20260507130417 | 20 | 211 | 6.4 | 16.1 | 0.00 | 0.00 | 0.00 | 58 | 1009.6 |
| 20260507130053 | 20 | 228 | 4.8 | 12.9 | 0.00 | 0.00 | 0.00 | 58 | 1009.1 |
| 20260507125903 | 20 | 219 | 6.4 | 16.1 | 0.00 | 0.00 | 0.00 | 57 | 1009.6 |
| 20260507125347 | 20 | 238 | 6.4 | 16.1 | 0.00 | 0.00 | 0.00 | 57 | 1009.5 |
| 20260507124559 | 20 | 227 | 3.2 | 17.7 | 0.00 | 0.00 | 0.00 | 58 | 1009.1 |
| 20260507124316 | 20 | 232 | 6.4 | 19.3 | 0.00 | 0.00 | 0.00 | 57 | 1009.6 |
| 20260507123802 | 20 | 175 | 6.4 | 14.5 | 0.00 | 0.00 | 0.00 | 58 | 1009.6 |
| 20260507123015 | 20 | 250 | 8.0 | 17.7 | 0.00 | 0.00 | 0.00 | 59 | 1009.1 |
| 20260507122732 | 20 | 231 | 8.0 | 17.7 | 0.00 | 0.00 | 0.00 | 60 | 1009.6 |
| 20260507122216 | 20 | 242 | 8.0 | 22.5 | 0.00 | 0.00 | 0.00 | 60 | 1009.6 |
| 20260507121702 | 20 | 244 | 8.0 | 22.5 | 0.00 | 0.00 | 0.00 | 61 | 1009.6 |
| 20260507121534 | 20 | 238 | 3.2 | 22.5 | 0.00 | 0.00 | 0.00 | 61 | 1009.2 |
| 20260507121149 | 20 | 242 | 9.7 | 25.7 | 0.00 | 0.00 | 0.00 | 61 | 1009.7 |
| 20260507120650 | 20 | 254 | 6.4 | 25.7 | 0.00 | 0.00 | 0.00 | 61 | 1009.7 |
| 20260507120137 | 20 | 245 | 6.4 | 17.7 | 0.00 | 0.00 | 0.00 | 62 | 1009.6 |
| 20260507120023 | 20 | 277 | 1.6 | 16.1 | 0.00 | 0.00 | 0.00 | 62 | 1009.2 |
| 20260507115623 | 20 | 250 | 6.4 | 17.7 | 0.00 | 0.00 | 0.00 | 61 | 1009.7 |
| 20260507115109 | 20 | 253 | 4.8 | 14.5 | 0.00 | 0.00 | 0.00 | 61 | 1009.7 |
| 20260507114556 | 20 | 249 | 4.8 | 17.7 | 0.00 | 0.00 | 0.00 | 62 | 1009.6 |
| 20260507114533 | 20 | 249 | 1.6 | 17.7 | 0.00 | 0.00 | 0.00 | 63 | 1009.2 |
| 20260507114044 | 20 | 255 | 4.8 | 17.7 | 0.00 | 0.00 | 0.00 | 63 | 1009.6 |
| 20260507113541 | 20 | 302 | 3.2 | 16.1 | 0.00 | 0.00 | 0.00 | 63 | 1009.6 |
| 20260507113010 | 20 | 227 | 1.6 | 14.5 | 0.00 | 0.00 | 0.00 | 65 | 1009.1 |
| 20260507112519 | 20 | 202 | 3.2 | 12.9 | 0.00 | 0.00 | 0.00 | 66 | 1009.6 |
| 20260507112017 | 20 | 224 | 4.8 | 14.5 | 0.00 | 0.00 | 0.00 | 65 | 1009.6 |
| 20260507111550 | 20 | 242 | 1.6 | 14.5 | 0.00 | 0.00 | 0.00 | 66 | 1009.2 |
| 20260507111513 | 20 | 200 | 6.4 | 17.7 | 0.00 | 0.00 | 0.00 | 65 | 1009.6 |
| 20260507111019 | 20 | 111 | 6.4 | 17.7 | 0.00 | 0.00 | 0.00 | 66 | 1009.6 |
| 20260507110026 | 19 | 248 | 6.4 | 14.5 | 0.00 | 0.00 | 0.00 | 67 | 1009.1 |
| 20260507105948 | 20 | 215 | 9.7 | 14.5 | 0.00 | 0.00 | 0.00 | 67 | 1009.6 |
| 20260507105436 | 20 | 238 | 8.0 | 16.1 | 0.00 | 0.00 | 0.00 | 67 | 1009.5 |
| 20260507104926 | 20 | 216 | 6.4 | 12.9 | 0.00 | 0.00 | 0.00 | 67 | 1009.6 |
| 20260507103911 | 19 | 227 | 8.0 | 12.9 | 0.00 | 0.00 | 0.00 | 67 | 1009.6 |
| 20260507103408 | 19 | 222 | 6.4 | 17.7 | 0.00 | 0.00 | 0.00 | 67 | 1009.6 |
| 20260507103052 | 19 | 194 | 8.0 | 17.7 | 0.00 | 0.00 | 0.00 | 66 | 1009.1 |
| 20260507102910 | 20 | 141 | 4.8 | 14.5 | 0.00 | 0.00 | 0.00 | 66 | 1009.5 |
| 20260507102401 | 20 | 242 | 1.6 | 12.9 | 0.00 | 0.00 | 0.00 | 66 | 1009.5 |
| 20260507101858 | 20 | 250 | 3.2 | 12.9 | 0.00 | 0.00 | 0.00 | 66 | 1009.5 |
| 20260507101527 | 19 | 299 | 0.0 | 14.5 | 0.00 | 0.00 | 0.00 | 67 | 1009.0 |
| 20260507101345 | 20 | 227 | 3.2 | 14.5 | 0.00 | 0.00 | 0.00 | 66 | 1009.4 |
| 20260507100842 | 19 | 288 | 3.2 | 14.5 | 0.00 | 0.00 | 0.00 | 67 | 1009.4 |
| 20260507100342 | 19 | 227 | 6.4 | 19.3 | 0.00 | 0.00 | 0.00 | 67 | 1009.4 |
| 20260507100010 | 19 | 227 | 4.8 | 19.3 | 0.00 | 0.00 | 0.00 | 66 | 1008.9 |
| 20260507095322 | 20 | 226 | 4.8 | 12.9 | 0.00 | 0.00 | 0.00 | 66 | 1009.4 |
| 20260507094546 | 19 | 246 | 4.8 | 11.3 | 0.00 | 0.00 | 0.00 | 66 | 1008.9 |
| 20260507094300 | 19 | 171 | 6.4 | 17.7 | 0.00 | 0.00 | 0.00 | 68 | 1009.3 |
| 20260507093759 | 19 | 234 | 4.8 | 17.7 | 0.00 | 0.00 | 0.00 | 68 | 1009.3 |
| 20260507093248 | 18 | 298 | 4.8 | 12.9 | 0.00 | 0.00 | 0.00 | 70 | 1009.3 |
| 20260507093017 | 18 | 224 | 1.6 | 12.9 | 0.00 | 0.00 | 0.00 | 70 | 1008.8 |
| 20260507092737 | 18 | 244 | 4.8 | 12.9 | 0.00 | 0.00 | 0.00 | 70 | 1009.3 |
| 20260507092228 | 19 | 255 | 6.4 | 17.7 | 0.00 | 0.00 | 0.00 | 69 | 1009.3 |
| 20260507091726 | 19 | 242 | 6.4 | 17.7 | 0.00 | 0.00 | 0.00 | 70 | 1009.1 |
| 20260507091505 | 18 | 247 | 9.7 | 17.7 | 0.00 | 0.00 | 0.00 | 69 | 1008.8 |
| 20260507091222 | 19 | 209 | 4.8 | 17.7 | 0.00 | 0.00 | 0.00 | 69 | 1009.1 |
| 20260507090724 | 19 | 217 | 4.8 | 14.5 | 0.00 | 0.00 | 0.00 | 69 | 1009.0 |
| 20260507090158 | 18 | 269 | 6.4 | 14.5 | 0.00 | 0.00 | 0.00 | 71 | 1009.0 |
| 20260507090033 | 18 | 244 | 6.4 | 12.9 | 0.00 | 0.00 | 0.00 | 71 | 1008.6 |
| 20260507085643 | 18 | 192 | 6.4 | 17.7 | 0.00 | 0.00 | 0.00 | 71 | 1008.9 |
| 20260507085134 | 18 | 235 | 8.0 | 17.7 | 0.00 | 0.00 | 0.00 | 71 | 1008.9 |
| 20260507084621 | 18 | 266 | 6.4 | 16.1 | 0.00 | 0.00 | 0.00 | 73 | 1008.8 |
| 20260507084558 | 18 | 266 | 4.8 | 16.1 | 0.00 | 0.00 | 0.00 | 71 | 1008.4 |
| 20260507084109 | 18 | 242 | 6.4 | 16.1 | 0.00 | 0.00 | 0.00 | 73 | 1008.8 |
| 20260507083557 | 18 | 215 | 8.0 | 14.5 | 0.00 | 0.00 | 0.00 | 73 | 1008.7 |
| 20260507083045 | 18 | 205 | 6.4 | 12.9 | 0.00 | 0.00 | 0.00 | 74 | 1008.7 |
| 20260507083026 | 17 | 203 | 8.0 | 12.9 | 0.00 | 0.00 | 0.00 | 74 | 1008.3 |
| 20260507082542 | 17 | 286 | 6.4 | 16.1 | 0.00 | 0.00 | 0.00 | 76 | 1008.7 |
| 20260507082029 | 17 | 242 | 6.4 | 16.1 | 0.00 | 0.00 | 0.00 | 75 | 1008.7 |
| 20260507081602 | 17 | 248 | 8.0 | 14.5 | 0.00 | 0.00 | 0.00 | 75 | 1008.4 |
| 20260507081518 | 17 | 235 | 6.4 | 16.1 | 0.00 | 0.00 | 0.00 | 75 | 1008.7 |
| 20260507081006 | 17 | 242 | 8.0 | 17.7 | 0.00 | 0.00 | 0.00 | 75 | 1008.7 |
| 20260507080508 | 17 | 256 | 6.4 | 17.7 | 0.00 | 0.00 | 0.00 | 75 | 1008.7 |
| 20260507080033 | 17 | 241 | 6.4 | 17.7 | 0.00 | 0.00 | 0.00 | 75 | 1008.2 |
| 20260507075956 | 17 | 254 | 6.4 | 17.7 | 0.00 | 0.00 | 0.00 | 76 | 1008.6 |
| 20260507075445 | 17 | 268 | 8.0 | 19.3 | 0.00 | 0.00 | 0.00 | 76 | 1008.6 |
| 20260507074932 | 17 | 203 | 8.0 | 19.3 | 0.00 | 0.00 | 0.00 | 78 | 1008.6 |
| 20260507074610 | 16 | 234 | 8.0 | 19.3 | 0.00 | 0.00 | 0.00 | 78 | 1008.2 |
| 20260507074420 | 17 | 266 | 8.0 | 17.7 | 0.00 | 0.00 | 0.00 | 79 | 1008.6 |
| 20260507073909 | 16 | 246 | 9.7 | 19.3 | 0.00 | 0.00 | 0.00 | 79 | 1008.5 |
| 20260507073023 | 16 | 277 | 8.0 | 19.3 | 0.00 | 0.00 | 0.00 | 79 | 1008.1 |
| 20260507072332 | 16 | 291 | 8.0 | 22.5 | 0.00 | 0.00 | 0.00 | 80 | 1008.4 |
| 20260507071818 | 16 | 225 | 8.0 | 22.5 | 0.00 | 0.00 | 0.00 | 80 | 1008.3 |
| 20260507071547 | 16 | 199 | 6.4 | 17.7 | 0.00 | 0.00 | 0.00 | 81 | 1007.9 |
| 20260507071305 | 16 | 240 | 6.4 | 14.5 | 0.00 | 0.00 | 0.00 | 81 | 1008.2 |
| 20260507070754 | 16 | 236 | 6.4 | 17.7 | 0.00 | 0.00 | 0.00 | 82 | 1008.2 |
| 20260507070012 | 16 | 248 | 8.0 | 16.1 | 0.00 | 0.00 | 0.00 | 81 | 1007.9 |
| 20260507065728 | 16 | 218 | 4.8 | 16.1 | 0.00 | 0.00 | 0.00 | 82 | 1008.1 |
| 20260507064531 | 15 | 244 | 8.0 | 12.9 | 0.00 | 0.00 | 0.00 | 83 | 1007.6 |
| 20260507064144 | 15 | 217 | 8.0 | 17.7 | 0.00 | 0.00 | 0.00 | 83 | 1008.0 |
| 20260507063630 | 15 | 237 | 8.0 | 17.7 | 0.00 | 0.00 | 0.00 | 83 | 1008.0 |
| 20260507063118 | 15 | 200 | 6.4 | 17.7 | 0.00 | 0.00 | 0.00 | 83 | 1007.9 |
| 20260507063051 | 15 | 191 | 9.7 | 17.7 | 0.00 | 0.00 | 0.00 | 83 | 1007.6 |
| 20260507062607 | 15 | 190 | 6.4 | 14.5 | 0.00 | 0.00 | 0.00 | 84 | 1007.9 |
| 20260507062054 | 15 | 214 | 6.4 | 16.1 | 0.00 | 0.00 | 0.00 | 84 | 1007.9 |
| 20260507061542 | 15 | 190 | 4.8 | 16.1 | 0.00 | 0.00 | 0.00 | 84 | 1007.9 |
| 20260507061515 | 15 | 186 | 3.2 | 16.1 | 0.00 | 0.00 | 0.00 | 84 | 1007.5 |
| 20260507061039 | 15 | 258 | 4.8 | 14.5 | 0.00 | 0.00 | 0.00 | 84 | 1007.9 |
| 20260507060529 | 15 | 248 | 4.8 | 12.9 | 0.00 | 0.00 | 0.00 | 85 | 1007.8 |
| 20260507060043 | 15 | 257 | 4.8 | 12.9 | 0.00 | 0.00 | 0.00 | 85 | 1007.4 |
| 20260507060007 | 15 | 230 | 3.2 | 12.9 | 0.00 | 0.00 | 0.00 | 85 | 1007.8 |
| 20260507055452 | 15 | 232 | 3.2 | 11.3 | 0.00 | 0.00 | 0.00 | 86 | 1007.8 |
| 20260507054938 | 15 | 231 | 4.8 | 11.3 | 0.00 | 0.00 | 0.00 | 86 | 1007.7 |
| 20260507054503 | 15 | 202 | 4.8 | 11.3 | 0.00 | 0.00 | 0.00 | 87 | 1007.2 |
| 20260507053911 | 15 | 248 | 3.2 | 11.3 | 0.00 | 0.00 | 0.00 | 88 | 1007.5 |
| 20260507053025 | 14 | 239 | 0.0 | 4.8 | 0.00 | 0.00 | 0.00 | 90 | 1006.9 |
| 20260507052845 | 14 | 239 | 1.6 | 4.8 | 0.00 | 0.00 | 0.00 | 90 | 1007.3 |
| 20260507051810 | 13 | 205 | 0.0 | 6.4 | 0.00 | 0.00 | 0.00 | 91 | 1007.2 |
| 20260507051539 | 13 | 226 | 0.0 | 4.8 | 0.00 | 0.00 | 0.00 | 91 | 1006.9 |
| 20260507050743 | 13 | 236 | 1.6 | 6.4 | 0.00 | 0.00 | 0.00 | 91 | 1007.2 |
| 20260507050229 | 13 | 237 | 3.2 | 6.4 | 0.00 | 0.00 | 0.00 | 91 | 1007.2 |
| 20260507050100 | 13 | 237 | 0.0 | 6.4 | 0.00 | 0.00 | 0.00 | 91 | 1006.8 |
| 20260507045713 | 13 | 242 | 1.6 | 6.4 | 0.00 | 0.00 | 0.00 | 92 | 1007.2 |
| 20260507044646 | 13 | 242 | 0.0 | 1.6 | 0.00 | 0.00 | 0.00 | 92 | 1007.1 |
| 20260507044620 | 13 | 242 | 0.0 | 1.6 | 0.00 | 0.00 | 0.00 | 92 | 1006.6 |
| 20260507044133 | 13 | 242 | 0.0 | 4.8 | 0.00 | 0.00 | 0.00 | 92 | 1006.9 |
| 20260507043619 | 13 | 240 | 0.0 | 6.4 | 0.00 | 0.00 | 0.00 | 92 | 1006.9 |
| 20260507043041 | 13 | 244 | 0.0 | 6.4 | 0.00 | 0.00 | 0.00 | 92 | 1006.4 |
| 20260507042549 | 13 | 243 | 1.6 | 6.4 | 0.00 | 0.00 | 0.00 | 92 | 1006.8 |
| 20260507042036 | 13 | 254 | 1.6 | 4.8 | 0.00 | 0.00 | 0.00 | 92 | 1006.7 |
| 20260507041603 | 13 | 254 | 0.0 | 3.2 | 0.00 | 0.00 | 0.00 | 92 | 1006.2 |
| 20260507041520 | 13 | 254 | 0.0 | 3.2 | 0.00 | 0.00 | 0.00 | 92 | 1006.7 |
| 20260507041006 | 13 | 252 | 0.0 | 4.8 | 0.00 | 0.00 | 0.00 | 92 | 1006.5 |
| 20260507040449 | 13 | 253 | 0.0 | 4.8 | 0.00 | 0.00 | 0.00 | 92 | 1006.4 |
| 20260507040013 | 13 | 305 | 0.0 | 0.0 | 0.00 | 0.00 | 0.00 | 92 | 1005.9 |
| 20260507035935 | 13 | 305 | 0.0 | 0.0 | 0.00 | 0.00 | 0.00 | 92 | 1006.3 |
| 20260507035421 | 13 | 305 | 0.0 | 0.0 | 0.00 | 0.00 | 0.00 | 92 | 1006.3 |
| 20260507034907 | 13 | 305 | 0.0 | 1.6 | 0.00 | 0.00 | 0.00 | 92 | 1006.4 |
| 20260507034533 | 12 | 305 | 0.0 | 1.6 | 0.00 | 0.00 | 0.00 | 92 | 1005.9 |
| 20260507034352 | 13 | 305 | 0.0 | 4.8 | 0.00 | 0.00 | 0.00 | 92 | 1006.3 |
| 20260507033842 | 13 | 245 | 0.0 | 4.8 | 0.00 | 0.00 | 0.00 | 92 | 1006.2 |
| 20260507033106 | 12 | 242 | 0.0 | 3.2 | 0.00 | 0.00 | 0.00 | 92 | 1005.8 |
| 20260507032306 | 13 | 242 | 0.0 | 4.8 | 0.00 | 0.00 | 0.00 | 92 | 1006.2 |
| 20260507031754 | 12 | 242 | 0.0 | 4.8 | 0.00 | 0.00 | 0.00 | 92 | 1006.1 |
| 20260507031527 | 12 | 248 | 0.0 | 4.8 | 0.00 | 0.00 | 0.00 | 92 | 1005.7 |
| 20260507031245 | 12 | 248 | 0.0 | 4.8 | 0.00 | 0.00 | 0.00 | 92 | 1006.2 |
| 20260507030740 | 12 | 247 | 0.0 | 4.8 | 0.00 | 0.00 | 0.00 | 92 | 1006.1 |
| 20260507030009 | 12 | 246 | 0.0 | 6.4 | 0.00 | 0.00 | 0.00 | 92 | 1005.7 |
| 20260507025729 | 12 | 245 | 1.6 | 6.4 | 0.00 | 0.00 | 0.00 | 93 | 1006.0 |
| 20260507025223 | 12 | 244 | 1.6 | 8.0 | 0.00 | 0.00 | 0.00 | 93 | 1005.9 |
| 20260507024712 | 12 | 257 | 0.0 | 8.0 | 0.00 | 0.00 | 0.00 | 93 | 1005.9 |
| 20260507024546 | 12 | 255 | 1.6 | 6.4 | 0.00 | 0.00 | 0.00 | 92 | 1005.5 |
| 20260507024200 | 12 | 234 | 0.0 | 1.6 | 0.00 | 0.00 | 0.00 | 92 | 1005.8 |
| 20260507023650 | 12 | 234 | 0.0 | 0.0 | 0.00 | 0.00 | 0.00 | 92 | 1005.6 |
| 20260507023145 | 12 | 234 | 0.0 | 0.0 | 0.00 | 0.00 | 0.00 | 92 | 1005.6 |
| 20260507023019 | 12 | 234 | 0.0 | 0.0 | 0.00 | 0.00 | 0.00 | 92 | 1005.1 |
| 20260507022651 | 12 | 234 | 0.0 | 0.0 | 0.00 | 0.00 | 0.00 | 92 | 1005.6 |
| 20260507022137 | 12 | 234 | 0.0 | 0.0 | 0.00 | 0.00 | 0.00 | 91 | 1005.5 |
| 20260507021510 | 12 | 234 | 0.0 | 0.0 | 0.00 | 0.00 | 0.00 | 91 | 1005.1 |
| 20260507021129 | 12 | 234 | 0.0 | 0.0 | 0.00 | 0.00 | 0.00 | 91 | 1005.6 |
| 20260507020620 | 12 | 234 | 0.0 | 0.0 | 0.00 | 0.00 | 0.00 | 91 | 1005.6 |
| 20260507020120 | 12 | 234 | 0.0 | 0.0 | 0.00 | 0.00 | 0.00 | 91 | 1005.7 |
| 20260507020057 | 12 | 234 | 0.0 | 0.0 | 0.00 | 0.00 | 0.00 | 91 | 1005.2 |
| 20260507015609 | 12 | 234 | 0.0 | 1.6 | 0.00 | 0.00 | 0.00 | 91 | 1005.6 |
| 20260507015100 | 12 | 234 | 0.0 | 0.0 | 0.00 | 0.00 | 0.00 | 90 | 1005.6 |
| 20260507014557 | 12 | 234 | 0.0 | 0.0 | 0.00 | 0.00 | 0.00 | 90 | 1005.6 |
| 20260507014544 | 12 | 234 | 0.0 | 0.0 | 0.00 | 0.00 | 0.00 | 90 | 1005.1 |
| 20260507013544 | 12 | 234 | 0.0 | 0.0 | 0.00 | 0.00 | 0.00 | 90 | 1005.5 |
| 20260507013035 | 12 | 234 | 0.0 | 0.0 | 0.00 | 0.00 | 0.00 | 90 | 1005.5 |
| 20260507013010 | 12 | 234 | 0.0 | 0.0 | 0.00 | 0.00 | 0.00 | 90 | 1005.0 |
| 20260507012523 | 12 | 234 | 0.0 | 0.0 | 0.00 | 0.00 | 0.00 | 89 | 1005.4 |
| 20260507012017 | 12 | 234 | 0.0 | 0.0 | 0.00 | 0.00 | 0.00 | 89 | 1005.4 |
| 20260507011546 | 12 | 234 | 0.0 | 0.0 | 0.00 | 0.00 | 0.00 | 88 | 1004.9 |
| 20260507011508 | 13 | 234 | 0.0 | 0.0 | 0.00 | 0.00 | 0.00 | 88 | 1005.3 |
| 20260507010958 | 13 | 234 | 0.0 | 0.0 | 0.00 | 0.00 | 0.00 | 88 | 1005.3 |
| 20260507010012 | 13 | 234 | 0.0 | 0.0 | 0.00 | 0.00 | 0.00 | 87 | 1004.8 |
| 20260507005936 | 13 | 234 | 0.0 | 0.0 | 0.00 | 0.00 | 0.00 | 87 | 1005.3 |
| 20260507005422 | 13 | 234 | 0.0 | 0.0 | 0.00 | 0.00 | 0.00 | 86 | 1005.3 |
| 20260507004923 | 13 | 234 | 0.0 | 0.0 | 0.00 | 0.00 | 0.00 | 86 | 1005.3 |
| 20260507004553 | 13 | 234 | 0.0 | 0.0 | 0.00 | 0.00 | 0.00 | 86 | 1004.9 |
| 20260507004413 | 13 | 234 | 0.0 | 0.0 | 0.00 | 0.00 | 0.00 | 86 | 1005.4 |
| 20260507003901 | 14 | 234 | 0.0 | 0.0 | 0.00 | 0.00 | 0.00 | 85 | 1005.4 |
| 20260507003351 | 14 | 234 | 0.0 | 1.6 | 0.00 | 0.00 | 0.00 | 85 | 1005.4 |
| 20260507003016 | 13 | 234 | 0.0 | 1.6 | 0.00 | 0.00 | 0.00 | 85 | 1004.9 |
| 20260507002835 | 14 | 234 | 0.0 | 1.6 | 0.00 | 0.00 | 0.00 | 85 | 1005.4 |
| 20260507002322 | 14 | 234 | 0.0 | 4.8 | 0.00 | 0.00 | 0.00 | 84 | 1005.4 |
| 20260507001543 | 14 | 234 | 0.0 | 1.6 | 0.00 | 0.00 | 0.00 | 84 | 1004.9 |
| 20260507001258 | 14 | 234 | 0.0 | 1.6 | 0.00 | 0.00 | 0.00 | 83 | 1005.4 |
| 20260507000748 | 15 | 234 | 0.0 | 1.6 | 0.00 | 0.00 | 0.00 | 83 | 1005.5 |
| 20260507000236 | 15 | 234 | 0.0 | 3.2 | 0.00 | 0.00 | 0.00 | 83 | 1005.3 |
| 20260507000009 | 14 | 234 | 0.0 | 3.2 | 0.00 | 0.00 | 0.00 | 82 | 1004.9 |
| 20260506235726 | 15 | 234 | 0.0 | 3.2 | 0.00 | 0.00 | 0.00 | 82 | 1005.4 |
| 20260506235224 | 15 | 234 | 1.6 | 4.8 | 0.00 | 0.00 | 0.00 | 82 | 1005.4 |
| 20260506234715 | 15 | 234 | 1.6 | 4.8 | 0.00 | 0.00 | 0.00 | 81 | 1005.4 |
| 20260506234547 | 15 | 243 | 0.0 | 4.8 | 0.00 | 0.00 | 0.00 | 81 | 1004.9 |
| 20260506234201 | 15 | 243 | 1.6 | 4.8 | 0.00 | 0.00 | 0.00 | 80 | 1005.5 |
| 20260506233648 | 15 | 252 | 1.6 | 4.8 | 0.00 | 0.00 | 0.00 | 79 | 1005.4 |
| 20260506233134 | 15 | 263 | 0.0 | 0.0 | 0.00 | 0.00 | 0.00 | 77 | 1005.4 |
| 20260506233129 | 15 | 263 | 0.0 | 0.0 | 0.00 | 0.00 | 0.00 | 77 | 1004.9 |
| 20260506232619 | 16 | 263 | 0.0 | 1.6 | 0.00 | 0.00 | 0.00 | 76 | 1005.5 |
| 20260506232104 | 16 | 263 | 0.0 | 1.6 | 0.00 | 0.00 | 0.00 | 74 | 1005.5 |
| 20260506231550 | 16 | 263 | 0.0 | 1.6 | 0.00 | 0.00 | 0.00 | 73 | 1005.5 |
| 20260506231524 | 16 | 263 | 0.0 | 1.6 | 0.00 | 0.00 | 0.00 | 72 | 1005.1 |
| 20260506231037 | 16 | 263 | 0.0 | 1.6 | 0.00 | 0.00 | 0.00 | 71 | 1005.5 |
| 20260506230527 | 17 | 263 | 0.0 | 3.2 | 0.00 | 0.00 | 0.00 | 70 | 1005.5 |
| 20260506230048 | 17 | 263 | 0.0 | 3.2 | 0.00 | 0.00 | 0.00 | 69 | 1005.0 |
| 20260506225451 | 17 | 263 | 0.0 | 4.8 | 0.00 | 0.00 | 0.00 | 68 | 1005.4 |
| 20260506224936 | 18 | 298 | 0.0 | 6.4 | 0.00 | 0.00 | 0.00 | 67 | 1005.4 |
| 20260506224502 | 18 | 298 | 0.0 | 6.4 | 0.00 | 0.00 | 0.00 | 66 | 1005.0 |
| 20260506224432 | 18 | 298 | 1.6 | 6.4 | 0.00 | 0.00 | 0.00 | 66 | 1005.5 |